Time;durP1;ratioP1;P1;durP2;ratioP2;P2;SDS_P1;SDS_P2;PMS_P1;PMS_P2;Temp;Humidity;BMP_temperature;BMP_pressure;BME280_temperature;BME280_humidity;BME280_pressure;Samples;Min_cycle;Max_cycle;Signal;HPM_P1;HPM_P2
2023/03/01 00:02:04;;;;;;;19.52;12.43;;;;;;;;;;5011225;28;20046;-76
2023/03/01 00:04:30;;;;;;;22.75;13.27;;;;;;;;;;4997574;28;20058;-76
2023/03/01 00:06:57;;;;;;;24.60;14.40;;;;;;;;;;5002031;28;20050;-76
2023/03/01 00:09:23;;;;;;;21.75;12.95;;;;;;;;;;5012808;28;20136;-76
2023/03/01 00:11:49;;;;;;;20.02;11.90;;;;;;;;;;5015327;28;20050;-77
2023/03/01 00:14:17;;;;;;;19.17;11.82;;;;;;;;;;5016117;28;20054;-77
2023/03/01 00:16:43;;;;;;;22.38;13.23;;;;;;;;;;5016072;28;20077;-77
2023/03/01 00:19:11;;;;;;;22.42;13.68;;;;;;;;;;5015766;28;20125;-77
2023/03/01 00:21:37;;;;;;;20.25;12.90;;;;;;;;;;5015140;28;20484;-76
2023/03/01 00:24:04;;;;;;;22.20;13.05;;;;;;;;;;5015228;28;20049;-76
2023/03/01 00:26:30;;;;;;;24.92;13.57;;;;;;;;;;5015469;28;20572;-76
2023/03/01 00:28:58;;;;;;;24.35;13.55;;;;;;;;;;5019243;28;20119;-77
2023/03/01 00:31:25;;;;;;;22.13;13.30;;;;;;;;;;5012818;28;20092;-76
2023/03/01 00:33:56;;;;;;;18.02;12.07;;;;;;;;;;5035057;28;20047;-76
2023/03/01 00:36:23;;;;;;;18.23;11.10;;;;;;;;;;5016995;28;20057;-76
2023/03/01 00:38:49;;;;;;;19.23;11.10;;;;;;;;;;5017302;28;20041;-76
2023/03/01 00:41:16;;;;;;;25.40;13.27;;;;;;;;;;5031680;28;20160;-76
2023/03/01 00:43:43;;;;;;;20.13;12.07;;;;;;;;;;5014915;28;20124;-76
2023/03/01 00:46:10;;;;;;;22.85;12.60;;;;;;;;;;5015248;28;20077;-76
2023/03/01 00:48:36;;;;;;;21.23;11.40;;;;;;;;;;4997801;28;20385;-77
2023/03/01 00:51:09;;;;;;;21.65;12.00;;;;;;;;;;5014866;28;20096;-76
2023/03/01 00:53:35;;;;;;;70.63;11.27;;;;;;;;;;4997120;28;20060;-76
2023/03/01 00:56:02;;;;;;;18.48;9.23;;;;;;;;;;5016335;28;20103;-76
2023/03/01 00:58:28;;;;;;;13.98;8.85;;;;;;;;;;5034899;28;20077;-76
2023/03/01 01:00:54;;;;;;;14.65;9.63;;;;;;;;;;5034386;28;20406;-76
2023/03/01 01:03:20;;;;;;;15.68;8.38;;;;;;;;;;5034481;28;20055;-76
2023/03/01 01:05:46;;;;;;;12.93;7.93;;;;;;;;;;5023186;28;20516;-76
2023/03/01 01:08:12;;;;;;;15.30;8.63;;;;;;;;;;5020363;28;20089;-76
2023/03/01 01:10:38;;;;;;;14.75;9.02;;;;;;;;;;5024094;28;20053;-76
2023/03/01 01:13:04;;;;;;;17.52;9.18;;;;;;;;;;5019360;28;20112;-76
2023/03/01 01:15:34;;;;;;;26.00;9.13;;;;;;;;;;5014189;28;20046;-76
2023/03/01 01:18:00;;;;;;;34.42;9.95;;;;;;;;;;5015078;28;20117;-76
2023/03/01 01:20:27;;;;;;;29.08;10.38;;;;;;;;;;5019220;28;20492;-76
2023/03/01 01:22:53;;;;;;;52.40;10.68;;;;;;;;;;5023457;28;20034;-76
2023/03/01 01:25:19;;;;;;;29.48;10.18;;;;;;;;;;5013948;28;20088;-76
2023/03/01 01:27:45;;;;;;;68.85;10.85;;;;;;;;;;5014447;28;20495;-76
2023/03/01 01:30:11;;;;;;;39.10;9.68;;;;;;;;;;5013457;28;20523;-76
2023/03/01 01:32:37;;;;;;;42.33;8.55;;;;;;;;;;5015088;28;20053;-77
2023/03/01 01:35:03;;;;;;;29.10;8.60;;;;;;;;;;5014632;28;20061;-76
2023/03/01 01:37:31;;;;;;;94.85;10.07;;;;;;;;;;5014584;28;20050;-76
2023/03/01 01:40:00;;;;;;;88.65;10.18;;;;;;;;;;5014035;28;20510;-76
2023/03/01 01:42:27;;;;;;;56.47;8.85;;;;;;;;;;5013204;28;20497;-77
2023/03/01 01:45:12;;;;;;;117.07;12.27;;;;;;;;;;4993139;28;20074;-76
2023/03/01 01:47:38;;;;;;;120.32;11.82;;;;;;;;;;5010275;28;20358;-77
2023/03/01 01:50:04;;;;;;;84.32;10.98;;;;;;;;;;5013781;28;20429;-76
2023/03/01 01:52:36;;;;;;;94.05;11.13;;;;;;;;;;5013650;28;20060;-76
2023/03/01 01:55:07;;;;;;;24.70;7.65;;;;;;;;;;5014530;28;20096;-76
2023/03/01 01:57:37;;;;;;;24.20;6.30;;;;;;;;;;5013912;28;20085;-76
2023/03/01 02:00:14;;;;;;;25.33;6.85;;;;;;;;;;5014077;28;20064;-77
2023/03/01 02:02:42;;;;;;;11.45;6.80;;;;;;;;;;4996151;28;20129;-76
2023/03/01 02:05:14;;;;;;;10.27;6.75;;;;;;;;;;5013871;28;20116;-76
2023/03/01 02:07:41;;;;;;;9.55;6.40;;;;;;;;;;5014546;28;20046;-76
2023/03/01 02:10:08;;;;;;;8.50;5.95;;;;;;;;;;5013498;28;20045;-76
2023/03/01 02:12:34;;;;;;;9.30;6.40;;;;;;;;;;5023354;28;20049;-76
2023/03/01 02:15:00;;;;;;;10.73;7.03;;;;;;;;;;5020404;28;20052;-76
2023/03/01 02:17:26;;;;;;;9.90;6.97;;;;;;;;;;5013425;28;20045;-77
2023/03/01 02:19:55;;;;;;;11.13;7.25;;;;;;;;;;5013052;28;20093;-76
2023/03/01 02:22:24;;;;;;;10.30;6.50;;;;;;;;;;5015317;28;20049;-76
2023/03/01 02:25:05;;;;;;;9.30;6.80;;;;;;;;;;5012350;28;20053;-76
2023/03/01 02:27:37;;;;;;;12.80;7.47;;;;;;;;;;5013773;28;20376;-76
2023/03/01 02:30:03;;;;;;;14.18;7.88;;;;;;;;;;5014823;28;20046;-76
2023/03/01 02:32:29;;;;;;;25.17;10.65;;;;;;;;;;5012890;28;20046;-76
2023/03/01 02:34:56;;;;;;;11.65;8.30;;;;;;;;;;5013526;28;20128;-76
2023/03/01 02:37:24;;;;;;;13.02;8.38;;;;;;;;;;5013825;28;20044;-76
2023/03/01 02:39:53;;;;;;;31.45;11.00;;;;;;;;;;5012512;28;20111;-77
2023/03/01 02:42:22;;;;;;;18.10;9.85;;;;;;;;;;5013150;28;20033;-76
2023/03/01 02:44:49;;;;;;;17.33;9.82;;;;;;;;;;5012905;28;20065;-76
2023/03/01 02:47:15;;;;;;;15.68;9.25;;;;;;;;;;5018930;28;20524;-76
2023/03/01 02:49:41;;;;;;;18.77;10.05;;;;;;;;;;5001092;28;20463;-77
2023/03/01 02:52:27;;;;;;;15.25;9.80;;;;;;;;;;4997107;28;20511;-77
2023/03/01 02:55:04;;;;;;;19.48;10.38;;;;;;;;;;5002869;28;20099;-77
2023/03/01 02:57:31;;;;;;;20.08;11.68;;;;;;;;;;5013146;28;20125;-76
2023/03/01 03:00:00;;;;;;;23.77;12.43;;;;;;;;;;5012715;28;20087;-77
2023/03/01 03:02:36;;;;;;;23.35;11.68;;;;;;;;;;4998066;28;20084;-76
2023/03/01 03:05:05;;;;;;;23.60;12.73;;;;;;;;;;5015190;28;20034;-76
2023/03/01 03:07:33;;;;;;;33.30;13.40;;;;;;;;;;4983486;28;20046;-76
2023/03/01 03:09:59;;;;;;;42.72;17.45;;;;;;;;;;5016904;28;20118;-76
2023/03/01 03:12:25;;;;;;;46.47;16.42;;;;;;;;;;5016642;28;20081;-76
2023/03/01 03:14:51;;;;;;;37.33;15.52;;;;;;;;;;5016751;28;20125;-76
2023/03/01 03:17:17;;;;;;;29.90;13.63;;;;;;;;;;5031494;28;20164;-76
2023/03/01 03:19:45;;;;;;;26.67;12.45;;;;;;;;;;5002221;28;20133;-76
2023/03/01 03:22:11;;;;;;;21.13;11.38;;;;;;;;;;5016318;28;20596;-76
2023/03/01 03:24:37;;;;;;;15.10;9.80;;;;;;;;;;5004750;28;20480;-76
2023/03/01 03:27:07;;;;;;;18.17;10.60;;;;;;;;;;5000238;28;20133;-76
2023/03/01 03:29:33;;;;;;;21.52;10.30;;;;;;;;;;5022799;28;20142;-76
2023/03/01 03:31:59;;;;;;;15.05;8.93;;;;;;;;;;5025279;28;20085;-76
2023/03/01 03:34:26;;;;;;;29.35;10.50;;;;;;;;;;5016578;28;20056;-76
2023/03/01 03:36:56;;;;;;;20.15;9.88;;;;;;;;;;5016375;28;20049;-76
2023/03/01 03:39:23;;;;;;;49.35;12.93;;;;;;;;;;5016291;28;20377;-76
2023/03/01 03:41:49;;;;;;;102.05;15.40;;;;;;;;;;5016505;28;20042;-76
2023/03/01 03:44:15;;;;;;;91.40;14.73;;;;;;;;;;4996529;28;20479;-76
2023/03/01 03:46:41;;;;;;;67.03;15.65;;;;;;;;;;5015949;28;20424;-76
2023/03/01 03:49:07;;;;;;;38.25;12.27;;;;;;;;;;5016113;28;20042;-76
2023/03/01 03:51:33;;;;;;;122.13;16.48;;;;;;;;;;4982705;28;20078;-76
2023/03/01 03:54:00;;;;;;;70.57;13.30;;;;;;;;;;5015923;28;20053;-76
2023/03/01 03:56:26;;;;;;;37.55;12.60;;;;;;;;;;5003649;28;20116;-76
2023/03/01 03:58:52;;;;;;;84.43;14.18;;;;;;;;;;5008530;28;20045;-76
2023/03/01 04:01:18;;;;;;;97.05;14.73;;;;;;;;;;5016185;28;20124;-76
2023/03/01 04:03:47;;;;;;;94.30;15.60;;;;;;;;;;5015274;28;20470;-76
2023/03/01 04:06:16;;;;;;;102.50;16.08;;;;;;;;;;5009460;28;20108;-76
2023/03/01 04:08:42;;;;;;;147.15;18.55;;;;;;;;;;5015392;28;20120;-76
2023/03/01 04:11:27;;;;;;;132.18;16.83;;;;;;;;;;5025898;28;20076;-76
2023/03/01 04:13:54;;;;;;;126.75;14.93;;;;;;;;;;5035977;28;20056;-76
2023/03/01 04:16:20;;;;;;;135.85;17.25;;;;;;;;;;5019187;28;20050;-76
2023/03/01 04:18:48;;;;;;;133.13;17.70;;;;;;;;;;5015686;28;20049;-76
2023/03/01 04:21:14;;;;;;;122.85;16.65;;;;;;;;;;5015547;28;20093;-76
2023/03/01 04:23:40;;;;;;;130.35;17.80;;;;;;;;;;5015407;28;20069;-76
2023/03/01 04:26:07;;;;;;;151.15;20.08;;;;;;;;;;5020943;28;20049;-76
2023/03/01 04:28:34;;;;;;;165.15;20.08;;;;;;;;;;5035650;28;20044;-76
2023/03/01 04:31:12;;;;;;;171.48;20.50;;;;;;;;;;5017864;28;20501;-76
2023/03/01 04:33:40;;;;;;;118.63;18.10;;;;;;;;;;5009385;28;20128;-76
2023/03/01 04:36:08;;;;;;;138.15;18.13;;;;;;;;;;5012348;28;20116;-76
2023/03/01 04:38:36;;;;;;;85.97;15.85;;;;;;;;;;5015540;28;20067;-76
2023/03/01 04:41:03;;;;;;;72.78;16.83;;;;;;;;;;5014413;28;20042;-76
2023/03/01 04:43:29;;;;;;;41.58;13.27;;;;;;;;;;4980986;28;20415;-76
2023/03/01 04:45:55;;;;;;;54.20;13.77;;;;;;;;;;5013120;28;20049;-76
2023/03/01 04:48:22;;;;;;;28.98;12.50;;;;;;;;;;5014903;28;20045;-76
2023/03/01 04:50:48;;;;;;;28.65;13.85;;;;;;;;;;5015193;28;20132;-76
2023/03/01 04:53:14;;;;;;;32.35;13.48;;;;;;;;;;5014542;28;20581;-76
2023/03/01 04:55:40;;;;;;;39.05;14.35;;;;;;;;;;5015058;28;20120;-76
2023/03/01 04:58:06;;;;;;;29.08;12.95;;;;;;;;;;5015298;28;20120;-76
2023/03/01 05:00:32;;;;;;;65.78;15.55;;;;;;;;;;5022000;28;20038;-76
2023/03/01 05:03:00;;;;;;;32.97;13.38;;;;;;;;;;5017832;28;20045;-75
2023/03/01 05:05:38;;;;;;;41.70;13.38;;;;;;;;;;5015436;28;20099;-76
2023/03/01 05:08:05;;;;;;;21.83;11.77;;;;;;;;;;4994128;28;20133;-76
2023/03/01 05:10:33;;;;;;;39.03;13.70;;;;;;;;;;5000976;28;20096;-76
2023/03/01 05:12:59;;;;;;;37.42;13.98;;;;;;;;;;5023386;28;20049;-76
2023/03/01 05:15:26;;;;;;;51.58;13.80;;;;;;;;;;5017822;28;20041;-76
2023/03/01 05:17:54;;;;;;;41.22;13.85;;;;;;;;;;5014467;28;20384;-76
2023/03/01 05:20:23;;;;;;;35.53;12.90;;;;;;;;;;5014260;28;20127;-76
2023/03/01 05:22:50;;;;;;;23.75;13.02;;;;;;;;;;5014217;28;20042;-76
2023/03/01 05:25:16;;;;;;;17.95;11.02;;;;;;;;;;4996631;28;20523;-76
2023/03/01 05:27:43;;;;;;;18.33;10.70;;;;;;;;;;5014402;28;20046;-76
2023/03/01 05:30:16;;;;;;;13.50;9.25;;;;;;;;;;5013581;28;20476;-76
2023/03/01 05:32:47;;;;;;;20.00;10.55;;;;;;;;;;5014340;28;20042;-76
2023/03/01 05:35:15;;;;;;;19.67;11.30;;;;;;;;;;5014301;28;20108;-76
2023/03/01 05:37:42;;;;;;;17.02;10.10;;;;;;;;;;5014365;28;20477;-76
2023/03/01 05:40:15;;;;;;;14.80;9.88;;;;;;;;;;5013461;28;20096;-76
2023/03/01 05:42:42;;;;;;;13.50;9.15;;;;;;;;;;4995975;28;20053;-76
2023/03/01 05:45:09;;;;;;;16.35;9.55;;;;;;;;;;5016368;28;20457;-76
2023/03/01 05:47:35;;;;;;;15.38;9.68;;;;;;;;;;5022876;28;20084;-75
2023/03/01 05:50:01;;;;;;;17.08;9.23;;;;;;;;;;5022403;28;20050;-75
2023/03/01 05:52:27;;;;;;;12.40;8.63;;;;;;;;;;5018959;28;20054;-75
2023/03/01 05:54:53;;;;;;;13.38;8.52;;;;;;;;;;5012453;28;20091;-76
2023/03/01 05:57:20;;;;;;;15.43;9.73;;;;;;;;;;5012602;28;20046;-76
2023/03/01 05:59:46;;;;;;;23.92;11.80;;;;;;;;;;5013980;28;20056;-76
2023/03/01 06:02:12;;;;;;;37.30;12.70;;;;;;;;;;5013701;28;20413;-76
2023/03/01 06:04:38;;;;;;;24.50;10.80;;;;;;;;;;5017769;28;20057;-76
2023/03/01 06:07:04;;;;;;;19.85;11.15;;;;;;;;;;5033700;28;20037;-76
2023/03/01 06:09:30;;;;;;;45.70;10.75;;;;;;;;;;5016137;28;20473;-76
2023/03/01 06:11:56;;;;;;;24.02;10.45;;;;;;;;;;5013640;28;20046;-76
2023/03/01 06:14:22;;;;;;;33.63;8.82;;;;;;;;;;5023306;28;20037;-75
2023/03/01 06:16:48;;;;;;;28.38;9.60;;;;;;;;;;5033637;28;20042;-76
2023/03/01 06:19:14;;;;;;;21.00;9.50;;;;;;;;;;4997224;28;20052;-79
2023/03/01 06:21:40;;;;;;;43.63;9.95;;;;;;;;;;5015791;28;20038;-76
2023/03/01 06:24:07;;;;;;;34.55;10.32;;;;;;;;;;5014240;28;20132;-76
2023/03/01 06:26:33;;;;;;;80.97;12.23;;;;;;;;;;4996086;28;20130;-76
2023/03/01 06:28:59;;;;;;;59.35;9.98;;;;;;;;;;5013854;28;20061;-76
2023/03/01 06:31:25;;;;;;;65.80;10.88;;;;;;;;;;5012656;28;20050;-77
2023/03/01 06:33:51;;;;;;;59.63;9.55;;;;;;;;;;4995253;28;20401;-76
2023/03/01 06:36:18;;;;;;;75.65;12.07;;;;;;;;;;5013734;28;20076;-76
2023/03/01 06:38:44;;;;;;;39.50;10.13;;;;;;;;;;5013720;28;20050;-76
2023/03/01 06:41:10;;;;;;;43.20;9.57;;;;;;;;;;5020762;28;20207;-76
2023/03/01 06:43:36;;;;;;;50.42;9.60;;;;;;;;;;5036766;28;20388;-76
2023/03/01 06:46:06;;;;;;;74.28;11.63;;;;;;;;;;5037137;28;20049;-76
2023/03/01 06:48:33;;;;;;;63.72;9.88;;;;;;;;;;5036729;28;20045;-76
2023/03/01 06:51:00;;;;;;;66.93;10.02;;;;;;;;;;5012049;28;20049;-76
2023/03/01 06:53:27;;;;;;;95.90;10.80;;;;;;;;;;5017607;28;20120;-76
2023/03/01 06:55:56;;;;;;;79.05;10.85;;;;;;;;;;5017131;28;20116;-76
2023/03/01 06:58:22;;;;;;;99.78;11.48;;;;;;;;;;5016896;28;20400;-76
2023/03/01 07:00:51;;;;;;;76.93;10.45;;;;;;;;;;5017822;28;20046;-76
2023/03/01 07:03:17;;;;;;;94.90;11.00;;;;;;;;;;5015477;28;20096;-79
2023/03/01 07:05:44;;;;;;;47.47;9.38;;;;;;;;;;5016289;28;20080;-76
2023/03/01 07:08:10;;;;;;;52.13;9.45;;;;;;;;;;5007047;28;20069;-76
2023/03/01 07:10:36;;;;;;;42.50;8.50;;;;;;;;;;5036776;28;20045;-76
2023/03/01 07:13:02;;;;;;;24.38;8.07;;;;;;;;;;5001179;28;20125;-76
2023/03/01 07:15:29;;;;;;;20.55;8.05;;;;;;;;;;5018384;28;20038;-76
2023/03/01 07:17:55;;;;;;;19.13;9.15;;;;;;;;;;5033432;28;20060;-76
2023/03/01 07:20:25;;;;;;;10.30;7.90;;;;;;;;;;5016793;28;20076;-76
2023/03/01 07:22:53;;;;;;;10.80;8.20;;;;;;;;;;4999008;28;20108;-76
2023/03/01 07:25:20;;;;;;;10.35;7.75;;;;;;;;;;4999121;28;20103;-76
2023/03/01 07:27:50;;;;;;;11.02;7.75;;;;;;;;;;5016643;28;20049;-76
2023/03/01 07:30:16;;;;;;;11.82;8.52;;;;;;;;;;5016055;28;20061;-76
2023/03/01 07:32:42;;;;;;;10.57;7.65;;;;;;;;;;5015754;28;20085;-75
2023/03/01 07:35:08;;;;;;;13.07;8.32;;;;;;;;;;5016159;28;20057;-76
2023/03/01 07:37:34;;;;;;;14.98;9.23;;;;;;;;;;5016230;28;20049;-76
2023/03/01 07:40:00;;;;;;;17.73;10.02;;;;;;;;;;5016588;28;20077;-76
2023/03/01 07:42:26;;;;;;;25.98;12.93;;;;;;;;;;5016268;28;20037;-76
2023/03/01 07:44:52;;;;;;;23.15;13.50;;;;;;;;;;5016276;28;20053;-75
2023/03/01 07:47:18;;;;;;;25.65;12.80;;;;;;;;;;5016324;28;20049;-76
2023/03/01 07:49:44;;;;;;;24.77;13.88;;;;;;;;;;5015855;28;20045;-76
2023/03/01 07:52:11;;;;;;;21.02;13.20;;;;;;;;;;5016073;28;20048;-76
2023/03/01 07:54:38;;;;;;;22.95;13.43;;;;;;;;;;5016141;28;20048;-76
2023/03/01 07:57:04;;;;;;;24.70;13.25;;;;;;;;;;5016101;28;20049;-76
2023/03/01 07:59:30;;;;;;;22.88;12.77;;;;;;;;;;4998018;28;20045;-76
2023/03/01 08:01:57;;;;;;;24.00;14.30;;;;;;;;;;5015626;28;20041;-76
2023/03/01 08:04:24;;;;;;;22.83;13.98;;;;;;;;;;4998113;28;20077;-76
2023/03/01 08:06:51;;;;;;;20.33;13.27;;;;;;;;;;5015925;28;20081;-76
2023/03/01 08:09:17;;;;;;;20.50;12.98;;;;;;;;;;5015883;28;20057;-76
2023/03/01 08:11:43;;;;;;;19.35;13.32;;;;;;;;;;5015508;28;20068;-76
2023/03/01 08:14:10;;;;;;;23.48;13.32;;;;;;;;;;5017903;28;20105;-76
2023/03/01 08:16:36;;;;;;;20.50;13.32;;;;;;;;;;5015395;28;20050;-76
2023/03/01 08:19:09;;;;;;;20.70;13.75;;;;;;;;;;5015503;28;20046;-76
2023/03/01 08:21:36;;;;;;;20.50;12.77;;;;;;;;;;5015575;28;20041;-76
2023/03/01 08:24:06;;;;;;;20.08;13.38;;;;;;;;;;5015094;28;20044;-76
2023/03/01 08:26:32;;;;;;;19.45;12.85;;;;;;;;;;5015582;28;20393;-76
2023/03/01 08:28:58;;;;;;;18.90;13.20;;;;;;;;;;5020710;28;20471;-76
2023/03/01 08:31:32;;;;;;;20.50;12.70;;;;;;;;;;5035348;28;20045;-76
2023/03/01 08:34:00;;;;;;;22.77;14.63;;;;;;;;;;5015444;28;20077;-76
2023/03/01 08:36:30;;;;;;;20.38;13.88;;;;;;;;;;5015541;28;20495;-76
2023/03/01 08:38:56;;;;;;;19.77;13.68;;;;;;;;;;4998350;28;20401;-76
2023/03/01 08:41:22;;;;;;;24.65;15.00;;;;;;;;;;5015375;28;20056;-76
2023/03/01 08:43:48;;;;;;;23.63;15.65;;;;;;;;;;5014974;28;20077;-76
2023/03/01 08:46:14;;;;;;;24.88;16.38;;;;;;;;;;5014971;28;20470;-76
2023/03/01 08:48:42;;;;;;;26.05;17.30;;;;;;;;;;5018630;28;20400;-76
2023/03/01 08:51:12;;;;;;;30.33;18.48;;;;;;;;;;5018209;28;20053;-76
2023/03/01 08:53:39;;;;;;;29.83;18.63;;;;;;;;;;4999372;28;20395;-77
2023/03/01 08:56:05;;;;;;;29.42;19.38;;;;;;;;;;5015204;28;20073;-76
2023/03/01 08:58:32;;;;;;;30.95;19.02;;;;;;;;;;5014958;28;20133;-76
2023/03/01 09:00:58;;;;;;;30.45;18.63;;;;;;;;;;5014076;28;20037;-76
2023/03/01 09:03:24;;;;;;;33.75;20.15;;;;;;;;;;5012369;28;20042;-76
2023/03/01 09:05:51;;;;;;;32.75;19.67;;;;;;;;;;5030052;28;20399;-75
2023/03/01 09:08:18;;;;;;;30.95;20.55;;;;;;;;;;5023539;28;20052;-76
2023/03/01 09:10:44;;;;;;;28.08;18.25;;;;;;;;;;5013814;28;20539;-76
2023/03/01 09:13:10;;;;;;;25.60;15.65;;;;;;;;;;5014642;28;20034;-76
2023/03/01 09:15:39;;;;;;;22.48;15.57;;;;;;;;;;5014911;28;20053;-76
2023/03/01 09:18:06;;;;;;;25.90;16.08;;;;;;;;;;5014905;28;20045;-76
2023/03/01 09:20:32;;;;;;;23.77;16.00;;;;;;;;;;5014440;28;20456;-76
2023/03/01 09:22:59;;;;;;;23.17;15.00;;;;;;;;;;4996830;28;20073;-76
2023/03/01 09:25:25;;;;;;;20.08;13.18;;;;;;;;;;5014052;28;20085;-76
2023/03/01 09:27:52;;;;;;;18.60;13.18;;;;;;;;;;5014206;28;20041;-76
2023/03/01 09:30:18;;;;;;;17.92;13.48;;;;;;;;;;5014016;28;20060;-76
2023/03/01 09:32:44;;;;;;;21.25;14.68;;;;;;;;;;5014289;28;20064;-77
2023/03/01 09:35:11;;;;;;;18.38;12.82;;;;;;;;;;5013523;28;20604;-76
2023/03/01 09:37:37;;;;;;;17.25;12.23;;;;;;;;;;5013902;28;20129;-77
2023/03/01 09:40:05;;;;;;;19.23;12.55;;;;;;;;;;4997577;28;20045;-79
2023/03/01 09:42:32;;;;;;;19.45;12.98;;;;;;;;;;5013992;28;20080;-79
2023/03/01 09:45:01;;;;;;;18.73;12.38;;;;;;;;;;5014056;28;20184;-79
2023/03/01 09:47:29;;;;;;;18.65;13.27;;;;;;;;;;5014460;28;20049;-79
2023/03/01 09:50:01;;;;;;;19.35;13.52;;;;;;;;;;5014278;28;20070;-79
2023/03/01 09:52:42;;;;;;;20.08;12.80;;;;;;;;;;5014857;28;20049;-79
2023/03/01 09:55:13;;;;;;;19.38;12.95;;;;;;;;;;5015042;28;20073;-79
2023/03/01 09:57:39;;;;;;;20.40;13.90;;;;;;;;;;4998164;28;20049;-79
2023/03/01 10:00:21;;;;;;;21.90;13.25;;;;;;;;;;5016363;28;20042;-80
2023/03/01 10:02:52;;;;;;;22.25;13.15;;;;;;;;;;5016358;28;20102;-79
2023/03/01 10:05:38;;;;;;;20.45;13.27;;;;;;;;;;4998187;28;20045;-79
2023/03/01 10:08:07;;;;;;;19.67;13.98;;;;;;;;;;4976775;28;20058;-79
2023/03/01 10:10:38;;;;;;;20.08;13.43;;;;;;;;;;5016100;28;20054;-79
2023/03/01 10:13:13;;;;;;;19.70;12.95;;;;;;;;;;5017003;28;20045;-79
2023/03/01 10:15:42;;;;;;;21.83;13.85;;;;;;;;;;5003118;28;20046;-80
2023/03/01 10:18:15;;;;;;;18.13;12.80;;;;;;;;;;4997520;28;20045;-79
2023/03/01 10:20:52;;;;;;;17.67;13.20;;;;;;;;;;5004528;28;20046;-79
2023/03/01 10:23:18;;;;;;;16.77;12.05;;;;;;;;;;5000860;28;20041;-79
2023/03/01 10:25:44;;;;;;;16.38;12.85;;;;;;;;;;5017605;28;20532;-79
2023/03/01 10:28:29;;;;;;;16.90;12.38;;;;;;;;;;5018139;28;20099;-80
2023/03/01 10:30:55;;;;;;;17.73;11.93;;;;;;;;;;5017188;28;20061;-80
2023/03/01 10:33:23;;;;;;;20.70;12.32;;;;;;;;;;5018457;28;20048;-80
2023/03/01 10:35:49;;;;;;;16.90;11.88;;;;;;;;;;5001344;28;20046;-80
2023/03/01 10:38:16;;;;;;;18.80;11.95;;;;;;;;;;5014995;28;20053;-79
2023/03/01 10:40:51;;;;;;;15.85;11.65;;;;;;;;;;5000942;28;20049;-79
2023/03/01 10:43:17;;;;;;;17.58;11.63;;;;;;;;;;4983885;28;20056;-79
2023/03/01 10:45:44;;;;;;;16.25;11.73;;;;;;;;;;5021904;28;20038;-83
2023/03/01 10:48:13;;;;;;;16.40;11.68;;;;;;;;;;5001550;28;20050;-80
2023/03/01 10:50:40;;;;;;;17.48;11.35;;;;;;;;;;5017427;28;20046;-79
2023/03/01 10:53:20;;;;;;;16.45;11.63;;;;;;;;;;5016049;28;20508;-80
2023/03/01 10:55:46;;;;;;;15.15;11.07;;;;;;;;;;4998166;28;20049;-80
2023/03/01 10:58:15;;;;;;;16.60;12.05;;;;;;;;;;4997566;28;20504;-80
2023/03/01 11:01:07;;;;;;;18.58;12.02;;;;;;;;;;5017322;28;20121;-80
2023/03/01 11:03:38;;;;;;;14.68;10.80;;;;;;;;;;4979158;28;20550;-80
2023/03/01 11:06:04;;;;;;;16.17;11.15;;;;;;;;;;5020236;28;20492;-79
2023/03/01 11:08:31;;;;;;;16.65;11.18;;;;;;;;;;5017296;28;20068;-79
2023/03/01 11:11:24;;;;;;;15.95;11.38;;;;;;;;;;5018255;28;20049;-80
2023/03/01 11:13:55;;;;;;;16.13;10.43;;;;;;;;;;5016749;28;20061;-80
2023/03/01 11:16:25;;;;;;;16.27;11.60;;;;;;;;;;5019359;28;20046;-82
2023/03/01 11:18:58;;;;;;;15.88;11.73;;;;;;;;;;5023906;28;20037;-80
2023/03/01 11:21:25;;;;;;;18.50;11.88;;;;;;;;;;5020031;28;20061;-80
2023/03/01 11:23:52;;;;;;;16.90;11.55;;;;;;;;;;5023608;28;20038;-79
2023/03/01 11:26:18;;;;;;;16.48;11.70;;;;;;;;;;5022348;28;20127;-79
2023/03/01 11:28:47;;;;;;;16.38;11.85;;;;;;;;;;5022490;28;20041;-79
2023/03/01 11:31:13;;;;;;;17.98;11.48;;;;;;;;;;5022838;28;20054;-79
2023/03/01 11:33:45;;;;;;;15.95;11.13;;;;;;;;;;5022409;28;20046;-79
2023/03/01 11:36:30;;;;;;;15.05;10.95;;;;;;;;;;5021606;28;20121;-79
2023/03/01 11:38:57;;;;;;;13.43;10.35;;;;;;;;;;5005392;28;20053;-79
2023/03/01 11:41:28;;;;;;;15.50;9.75;;;;;;;;;;5015794;28;20061;-82
2023/03/01 11:44:02;;;;;;;16.73;10.63;;;;;;;;;;5010422;28;20041;-80
2023/03/01 11:46:48;;;;;;;14.82;11.00;;;;;;;;;;5000783;28;20053;-80
2023/03/01 11:49:33;;;;;;;17.05;11.40;;;;;;;;;;4980803;28;20054;-80
2023/03/01 11:52:14;;;;;;;16.88;10.95;;;;;;;;;;5003481;28;20054;-80
2023/03/01 11:54:55;;;;;;;14.23;9.75;;;;;;;;;;4986356;28;20050;-80
2023/03/01 11:57:21;;;;;;;15.63;9.98;;;;;;;;;;5006480;28;20050;-79
2023/03/01 11:59:47;;;;;;;12.43;8.98;;;;;;;;;;4987600;28;20092;-79
2023/03/01 12:02:19;;;;;;;13.80;9.13;;;;;;;;;;5003254;28;20050;-79
2023/03/01 12:05:09;;;;;;;11.73;9.50;;;;;;;;;;5003512;28;20044;-79
2023/03/01 12:07:47;;;;;;;13.52;9.20;;;;;;;;;;4979203;28;20058;-80
2023/03/01 12:10:15;;;;;;;14.88;9.95;;;;;;;;;;5003038;28;20524;-80
2023/03/01 12:12:56;;;;;;;14.50;10.27;;;;;;;;;;5002683;28;20042;-80
2023/03/01 12:15:28;;;;;;;14.82;11.02;;;;;;;;;;5002561;28;20073;-80
2023/03/01 12:18:14;;;;;;;16.25;11.90;;;;;;;;;;5002554;28;20057;-80
2023/03/01 12:20:52;;;;;;;17.07;11.50;;;;;;;;;;5003114;28;20054;-80
2023/03/01 12:23:47;;;;;;;14.70;10.20;;;;;;;;;;5001878;28;20046;-80
2023/03/01 12:26:22;;;;;;;18.40;11.30;;;;;;;;;;4986723;28;20051;-80
2023/03/01 12:29:07;;;;;;;14.77;10.45;;;;;;;;;;5021339;28;20049;-80
2023/03/01 12:31:42;;;;;;;17.10;10.68;;;;;;;;;;5003048;28;20046;-80
2023/03/01 12:34:26;;;;;;;14.87;10.57;;;;;;;;;;5020665;28;20088;-79
2023/03/01 12:37:12;;;;;;;14.95;10.35;;;;;;;;;;5019972;28;20117;-80
2023/03/01 12:40:01;;;;;;;14.63;9.80;;;;;;;;;;5020780;28;20041;-80
2023/03/01 12:42:40;;;;;;;15.77;9.90;;;;;;;;;;5004847;28;20042;-80
2023/03/01 12:45:18;;;;;;;15.43;10.60;;;;;;;;;;5000014;28;20050;-80
2023/03/01 12:47:54;;;;;;;14.38;10.02;;;;;;;;;;5007499;28;20046;-80
2023/03/01 12:50:22;;;;;;;16.83;10.38;;;;;;;;;;5019706;28;20069;-80
2023/03/01 12:52:51;;;;;;;15.90;10.00;;;;;;;;;;5019953;28;20152;-80
2023/03/01 12:55:38;;;;;;;14.75;10.00;;;;;;;;;;5019349;28;20053;-80
2023/03/01 12:58:24;;;;;;;17.25;10.45;;;;;;;;;;5022545;28;20426;-79
2023/03/01 13:00:53;;;;;;;13.60;8.95;;;;;;;;;;5039039;28;20107;-79
2023/03/01 13:03:34;;;;;;;16.02;9.80;;;;;;;;;;5019520;28;20046;-80
2023/03/01 13:06:17;;;;;;;13.43;9.80;;;;;;;;;;5019572;28;20046;-79
2023/03/01 13:08:48;;;;;;;15.23;9.98;;;;;;;;;;5019561;28;20042;-80
2023/03/01 13:11:19;;;;;;;15.45;10.85;;;;;;;;;;5019090;28;20041;-80
2023/03/01 13:13:46;;;;;;;15.32;10.23;;;;;;;;;;5019465;28;20503;-79
2023/03/01 13:16:30;;;;;;;19.23;12.00;;;;;;;;;;5018626;28;20046;-79
2023/03/01 13:19:15;;;;;;;15.43;10.20;;;;;;;;;;5018434;28;20075;-79
2023/03/01 13:21:42;;;;;;;13.02;9.27;;;;;;;;;;5019246;28;20045;-81
2023/03/01 13:24:26;;;;;;;14.20;10.05;;;;;;;;;;5018141;28;20119;-79
2023/03/01 13:27:08;;;;;;;13.07;9.23;;;;;;;;;;4999160;28;20058;-79
2023/03/01 13:29:50;;;;;;;14.48;10.35;;;;;;;;;;5016453;28;20189;-79
2023/03/01 13:32:31;;;;;;;12.77;9.07;;;;;;;;;;5015932;28;20050;-80
2023/03/01 13:34:58;;;;;;;14.65;8.65;;;;;;;;;;5014515;28;20072;-80
2023/03/01 13:37:26;;;;;;;12.15;9.00;;;;;;;;;;5016850;28;20049;-80
2023/03/01 13:39:52;;;;;;;12.30;8.60;;;;;;;;;;5009935;28;20046;-80
2023/03/01 13:42:37;;;;;;;11.68;8.38;;;;;;;;;;5016812;28;20469;-80
2023/03/01 13:45:04;;;;;;;12.65;9.27;;;;;;;;;;5016275;28;20089;-80
2023/03/01 13:47:31;;;;;;;14.50;9.45;;;;;;;;;;5016107;28;20113;-80
2023/03/01 13:49:58;;;;;;;13.15;8.88;;;;;;;;;;5015710;28;20038;-80
2023/03/01 13:52:43;;;;;;;14.75;9.45;;;;;;;;;;5016758;28;20049;-80
2023/03/01 13:55:16;;;;;;;13.15;8.48;;;;;;;;;;4999393;28;20046;-79
2023/03/01 13:57:43;;;;;;;13.15;9.23;;;;;;;;;;4998128;28;20055;-79
2023/03/01 14:00:29;;;;;;;12.70;9.50;;;;;;;;;;5000033;28;20038;-79
2023/03/01 14:03:02;;;;;;;15.27;10.23;;;;;;;;;;5014867;28;20057;-79
2023/03/01 14:05:28;;;;;;;16.00;10.40;;;;;;;;;;4999071;28;20065;-79
2023/03/01 14:07:54;;;;;;;13.70;9.23;;;;;;;;;;5015621;28;20046;-79
2023/03/01 14:10:21;;;;;;;12.32;9.10;;;;;;;;;;5015611;28;20389;-79
2023/03/01 14:12:53;;;;;;;14.45;8.80;;;;;;;;;;5015958;28;20053;-79
2023/03/01 14:15:22;;;;;;;14.73;9.85;;;;;;;;;;5018793;28;20042;-79
2023/03/01 14:17:54;;;;;;;13.65;8.90;;;;;;;;;;5018640;28;20046;-79
2023/03/01 14:20:20;;;;;;;12.18;8.98;;;;;;;;;;4983082;28;20046;-79
2023/03/01 14:22:47;;;;;;;13.13;8.98;;;;;;;;;;5008320;28;20037;-79
2023/03/01 14:25:24;;;;;;;12.60;8.20;;;;;;;;;;5027356;28;20133;-79
2023/03/01 14:27:53;;;;;;;13.73;9.30;;;;;;;;;;5028486;28;20045;-78
2023/03/01 14:30:24;;;;;;;14.45;9.30;;;;;;;;;;5028422;28;20058;-79
2023/03/01 14:33:13;;;;;;;11.82;8.02;;;;;;;;;;5028354;28;20053;-79
2023/03/01 14:35:40;;;;;;;11.60;8.25;;;;;;;;;;5003669;28;20109;-79